Time;durP1;ratioP1;P1;durP2;ratioP2;P2;SDS_P1;SDS_P2;PMS_P1;PMS_P2;Temp;Humidity;BMP_temperature;BMP_pressure;BME280_temperature;BME280_humidity;BME280_pressure;Samples;Min_cycle;Max_cycle;Signal;HPM_P1;HPM_P2
2023/07/08 00:00:50;;;;;;;6.78;2.78;;;;;;;-142.75;100.00;76278.97;4985832;28;20030;-65
2023/07/08 00:03:16;;;;;;;4.60;1.98;;;;;;;-142.75;100.00;76302.59;4985953;28;20664;-65
2023/07/08 00:05:41;;;;;;;6.82;2.33;;;;;;;-142.75;100.00;76271.09;4998027;28;20030;-65
2023/07/08 00:08:18;;;;;;;3.20;1.83;;;;;;;-142.75;100.00;76273.06;5005259;28;20014;-65
2023/07/08 00:10:43;;;;;;;4.30;2.40;;;;;;;-142.75;100.00;76275.03;5005416;28;20029;-65
2023/07/08 00:13:09;;;;;;;4.28;2.22;;;;;;;-142.75;100.00;76265.19;5005014;28;20034;-65
2023/07/08 00:15:36;;;;;;;4.55;2.20;;;;;;;-142.75;100.00;76282.91;4995813;28;20030;-65
2023/07/08 00:18:08;;;;;;;3.15;2.13;;;;;;;-142.75;100.00;76296.69;4985266;28;20089;-65
2023/07/08 00:20:51;;;;;;;4.10;2.28;;;;;;;-142.75;100.00;76288.81;4985728;28;20540;-66
2023/07/08 00:23:21;;;;;;;4.55;2.28;;;;;;;-142.75;100.00;76278.97;4985833;28;20038;-65
2023/07/08 00:25:47;;;;;;;4.10;1.92;;;;;;;-142.75;100.00;76277.00;4985044;28;20478;-65
2023/07/08 00:28:18;;;;;;;4.28;2.10;;;;;;;-142.75;100.00;76267.16;4985219;28;20035;-65
2023/07/08 00:30:43;;;;;;;4.60;2.10;;;;;;;-142.75;100.00;76275.03;4985377;28;20120;-65
2023/07/08 00:33:09;;;;;;;4.13;2.10;;;;;;;-142.75;100.00;76275.03;5000431;28;20505;-65
2023/07/08 00:35:38;;;;;;;5.25;1.98;;;;;;;-142.75;100.00;76288.81;4985319;28;20029;-65
2023/07/08 00:38:28;;;;;;;4.25;2.00;;;;;;;-142.75;100.00;76290.78;4985306;28;20098;-65
2023/07/08 00:41:02;;;;;;;3.45;2.40;;;;;;;-142.75;100.00;76341.97;5000685;28;20633;-65
2023/07/08 00:43:45;;;;;;;3.40;1.90;;;;;;;-142.75;100.00;76328.19;4985280;28;20034;-65
2023/07/08 00:46:31;;;;;;;4.68;2.30;;;;;;;-142.75;100.00;76347.84;4985547;28;20034;-65
2023/07/08 00:48:59;;;;;;;7.65;2.70;;;;;;;-142.75;100.00;76361.63;4985181;28;20401;-66
2023/07/08 00:51:24;;;;;;;5.10;2.35;;;;;;;-142.75;100.00;76371.47;4985141;28;20153;-65
2023/07/08 00:53:50;;;;;;;5.10;1.90;;;;;;;-142.75;100.00;76355.72;4985287;28;20057;-65
2023/07/08 00:57:00;;;;;;;6.78;2.20;;;;;;;-142.75;100.00;76353.78;4985253;28;20038;-65
2023/07/08 00:59:31;;;;;;;4.15;2.17;;;;;;;-142.75;100.00;76353.78;4942388;28;20055;-64
2023/07/08 01:02:00;;;;;;;4.82;2.22;;;;;;;-142.75;100.00;76340.00;4980572;28;20042;-65
2023/07/08 01:04:34;;;;;;;4.75;2.30;;;;;;;-142.75;100.00;76330.16;4985201;28;20026;-65
2023/07/08 01:07:03;;;;;;;7.07;2.45;;;;;;;-142.75;100.00;76359.66;4985645;28;20033;-65
2023/07/08 01:09:37;;;;;;;4.80;2.17;;;;;;;-142.75;100.00;76326.22;4984423;28;20023;-65
2023/07/08 01:12:06;;;;;;;3.95;2.00;;;;;;;-142.75;100.00;76330.16;4985357;28;20666;-65
2023/07/08 01:14:35;;;;;;;4.78;2.20;;;;;;;-142.75;100.00;76310.47;4985053;28;20034;-65
2023/07/08 01:17:01;;;;;;;2.97;1.65;;;;;;;-142.75;100.00;76312.44;4985318;28;20677;-65
2023/07/08 01:19:34;;;;;;;3.22;1.70;;;;;;;-142.75;100.00;76298.66;4984731;28;20030;-65
2023/07/08 01:22:01;;;;;;;4.28;2.00;;;;;;;-142.75;100.00;76310.47;4983998;28;20041;-66
2023/07/08 01:24:29;;;;;;;5.47;2.47;;;;;;;-142.75;100.00;76304.56;4984981;28;20030;-65
2023/07/08 01:26:56;;;;;;;8.07;2.72;;;;;;;-142.75;100.00;76306.53;4985043;28;20129;-64
2023/07/08 01:29:22;;;;;;;4.13;2.15;;;;;;;-142.75;100.00;76302.59;4984646;28;20015;-65
2023/07/08 01:31:48;;;;;;;3.83;1.88;;;;;;;-142.75;100.00;76312.44;4985057;28;20667;-65
2023/07/08 01:34:18;;;;;;;4.70;2.47;;;;;;;-142.75;100.00;76304.56;4985103;28;20030;-65
2023/07/08 01:36:48;;;;;;;3.20;2.15;;;;;;;-142.75;100.00;76302.59;4984947;28;20031;-65
2023/07/08 01:39:17;;;;;;;7.20;2.60;;;;;;;-142.75;100.00;76296.69;4988407;28;20026;-65
2023/07/08 01:41:43;;;;;;;4.05;2.00;;;;;;;-142.75;100.00;76306.53;4988740;28;20030;-66
2023/07/08 01:44:24;;;;;;;3.70;2.25;;;;;;;-142.75;100.00;76302.59;4988575;28;20093;-66
2023/07/08 01:46:52;;;;;;;3.45;2.10;;;;;;;-142.75;100.00;76306.53;4988495;28;20077;-66
2023/07/08 01:49:19;;;;;;;4.75;2.05;;;;;;;-142.75;100.00;76306.53;4987816;28;20022;-65
2023/07/08 01:51:45;;;;;;;4.45;2.50;;;;;;;-142.75;100.00;76322.28;4988257;28;20710;-65
2023/07/08 01:54:11;;;;;;;5.30;2.17;;;;;;;-142.75;100.00;76320.31;5007200;28;20105;-65
2023/07/08 01:56:36;;;;;;;5.20;2.20;;;;;;;-142.75;100.00;76322.28;5007526;28;20124;-66
2023/07/08 01:59:02;;;;;;;6.68;2.70;;;;;;;-142.75;100.00;76343.94;5005798;28;20017;-66
2023/07/08 02:01:27;;;;;;;5.05;2.55;;;;;;;-142.75;100.00;76351.81;5007533;28;20030;-65
2023/07/08 02:03:52;;;;;;;6.47;2.50;;;;;;;-142.75;100.00;76357.69;5006184;28;20022;-65
2023/07/08 02:06:19;;;;;;;4.15;2.20;;;;;;;-142.75;100.00;76369.50;5006300;28;20026;-66
2023/07/08 02:08:44;;;;;;;4.82;2.45;;;;;;;-142.75;100.00;76369.50;5007666;28;20076;-65
2023/07/08 02:11:09;;;;;;;4.63;2.20;;;;;;;-142.75;100.00;76367.53;5006019;28;20456;-66
2023/07/08 02:13:35;;;;;;;4.03;2.30;;;;;;;-142.75;100.00;76369.50;5007382;28;20029;-65
2023/07/08 02:16:00;;;;;;;3.70;2.40;;;;;;;-142.75;100.00;76361.63;5007614;28;20056;-65
2023/07/08 02:18:26;;;;;;;3.22;1.98;;;;;;;-142.75;100.00;76359.66;5006945;28;20486;-65
2023/07/08 02:20:51;;;;;;;5.82;2.53;;;;;;;-142.75;100.00;76359.66;5007243;28;20026;-65
2023/07/08 02:23:16;;;;;;;3.63;2.45;;;;;;;-142.75;100.00;76351.81;5007166;28;20038;-65
2023/07/08 02:25:50;;;;;;;4.43;2.38;;;;;;;-142.75;100.00;76353.78;5006858;28;20026;-65
2023/07/08 02:28:15;;;;;;;5.55;2.55;;;;;;;-142.75;100.00;76373.44;5006821;28;20448;-65
2023/07/08 02:30:40;;;;;;;6.03;2.20;;;;;;;-142.75;100.00;76361.63;5006800;28;20109;-65
2023/07/08 02:33:06;;;;;;;3.92;2.20;;;;;;;-142.75;100.00;76345.91;5005689;28;20108;-65
2023/07/08 02:35:31;;;;;;;5.53;2.88;;;;;;;-142.75;100.00;76383.28;5006972;28;20025;-66
2023/07/08 02:37:57;;;;;;;5.68;2.67;;;;;;;-142.75;100.00;76381.31;5000781;28;20096;-66
2023/07/08 02:40:24;;;;;;;3.40;2.28;;;;;;;-142.75;100.00;76389.19;4987482;28;20045;-65
2023/07/08 02:42:49;;;;;;;5.00;2.17;;;;;;;-142.75;100.00;76401.00;4987690;28;20049;-65
2023/07/08 02:45:16;;;;;;;3.38;2.22;;;;;;;-142.75;100.00;76393.13;4987644;28;20525;-65
2023/07/08 02:47:41;;;;;;;4.32;2.30;;;;;;;-142.75;100.00;76389.19;4986907;28;20038;-65
2023/07/08 02:50:08;;;;;;;5.90;2.67;;;;;;;-142.75;100.00;76373.44;5002123;28;20041;-65
2023/07/08 02:52:34;;;;;;;5.68;2.25;;;;;;;-142.75;100.00;76377.38;5006657;28;20030;-65
2023/07/08 02:54:59;;;;;;;6.30;2.60;;;;;;;-142.75;100.00;76377.38;5006600;28;20091;-64
2023/07/08 02:57:25;;;;;;;5.88;2.55;;;;;;;-142.75;100.00;76381.31;5006495;28;20033;-66
2023/07/08 02:59:50;;;;;;;5.85;2.60;;;;;;;-142.75;100.00;76399.03;5005983;28;20116;-65
2023/07/08 03:02:15;;;;;;;3.85;2.67;;;;;;;-142.75;100.00;76410.84;5005135;28;20204;-65
2023/07/08 03:04:41;;;;;;;5.72;2.50;;;;;;;-142.75;100.00;76422.66;4994984;28;20041;-65
2023/07/08 03:07:11;;;;;;;5.32;2.53;;;;;;;-142.75;100.00;76424.63;4988985;28;20018;-64
2023/07/08 03:09:38;;;;;;;4.78;2.38;;;;;;;-142.75;100.00;76432.50;5006072;28;20115;-65
2023/07/08 03:12:05;;;;;;;8.43;3.25;;;;;;;-142.75;100.00;76456.13;5006754;28;20036;-65
2023/07/08 03:14:30;;;;;;;4.32;2.80;;;;;;;-142.75;100.00;76444.31;5006288;28;20034;-65
2023/07/08 03:16:56;;;;;;;5.15;2.67;;;;;;;-142.75;100.00;76452.19;4987573;28;20037;-64
2023/07/08 03:19:21;;;;;;;4.75;2.85;;;;;;;-142.75;100.00;76442.34;4986347;28;20084;-66
2023/07/08 03:21:47;;;;;;;4.28;2.20;;;;;;;-142.75;100.00;76434.47;4991310;28;20100;-65
2023/07/08 03:24:12;;;;;;;5.68;2.40;;;;;;;-142.75;100.00;76426.59;5006161;28;20041;-65
2023/07/08 03:26:38;;;;;;;5.53;2.67;;;;;;;-142.75;100.00;76428.56;5005942;28;20022;-65
2023/07/08 03:29:04;;;;;;;4.43;2.55;;;;;;;-142.75;100.00;76438.41;5005604;28;20490;-65
2023/07/08 03:31:29;;;;;;;5.13;2.60;;;;;;;-142.75;100.00;76428.56;4995207;28;22112;-65
2023/07/08 03:33:55;;;;;;;4.03;2.67;;;;;;;-142.75;100.00;76424.63;4986417;28;20113;-65
2023/07/08 03:36:23;;;;;;;6.38;2.72;;;;;;;-142.75;100.00;76440.38;4986337;28;20064;-65
2023/07/08 03:38:57;;;;;;;6.40;3.03;;;;;;;-142.75;100.00;76416.75;4986404;28;20743;-65
2023/07/08 03:41:24;;;;;;;4.15;2.53;;;;;;;-142.75;100.00;76428.56;4986276;28;20040;-65
2023/07/08 03:43:52;;;;;;;5.72;2.83;;;;;;;-142.75;100.00;76440.38;4986227;28;20034;-65
2023/07/08 03:46:20;;;;;;;8.05;3.00;;;;;;;-142.75;100.00;76436.44;4986474;28;20099;-65
2023/07/08 03:48:46;;;;;;;4.32;2.58;;;;;;;-142.75;100.00;76456.13;4995289;28;20037;-66
2023/07/08 03:51:21;;;;;;;5.53;3.03;;;;;;;-142.75;100.00;76460.06;4997140;28;20379;-65
2023/07/08 03:53:46;;;;;;;7.43;3.10;;;;;;;-142.75;100.00;76456.13;4986116;28;20030;-65
2023/07/08 03:56:13;;;;;;;7.38;2.85;;;;;;;-142.75;100.00;76456.13;5000714;28;20474;-65
2023/07/08 03:58:38;;;;;;;6.50;2.78;;;;;;;-142.75;100.00;76464.00;5005058;28;20513;-66
2023/07/08 04:01:04;;;;;;;6.18;3.15;;;;;;;-142.75;100.00;76458.09;5004949;28;20072;-65
2023/07/08 04:03:29;;;;;;;6.80;3.00;;;;;;;-142.75;100.00;76452.19;5005276;28;20030;-64
2023/07/08 04:05:55;;;;;;;6.25;2.85;;;;;;;-142.75;100.00;76448.25;5005339;28;20052;-65
2023/07/08 04:08:20;;;;;;;4.13;2.40;;;;;;;-142.75;100.00;76440.38;5005254;28;20032;-65
2023/07/08 04:10:46;;;;;;;5.40;2.55;;;;;;;-142.75;100.00;76432.50;5005088;28;20033;-65
2023/07/08 04:13:11;;;;;;;4.85;2.78;;;;;;;-142.75;100.00;76428.56;5005407;28;20099;-65
2023/07/08 04:15:37;;;;;;;7.32;2.75;;;;;;;-142.75;100.00;76424.63;5005139;28;20485;-65
2023/07/08 04:18:02;;;;;;;6.57;3.03;;;;;;;-142.75;100.00;76424.63;5004676;28;20160;-65
2023/07/08 04:20:28;;;;;;;5.32;2.55;;;;;;;-142.75;100.00;76424.63;5004978;28;20034;-65
2023/07/08 04:22:54;;;;;;;4.28;2.67;;;;;;;-142.75;100.00;76428.56;5003869;28;20029;-65
2023/07/08 04:25:21;;;;;;;3.92;2.60;;;;;;;-142.75;100.00;76426.59;5004903;28;20026;-65
2023/07/08 04:27:46;;;;;;;5.15;2.78;;;;;;;-142.75;100.00;76432.50;5004730;28;20026;-65
2023/07/08 04:30:21;;;;;;;4.43;2.83;;;;;;;-142.75;100.00;76416.75;5004997;28;20028;-65
2023/07/08 04:32:47;;;;;;;5.78;3.17;;;;;;;-142.75;100.00;76444.31;4998907;28;20478;-65
2023/07/08 04:35:12;;;;;;;5.30;2.75;;;;;;;-142.75;100.00;76434.47;4985541;28;20065;-65
2023/07/08 04:37:38;;;;;;;5.32;3.25;;;;;;;-142.75;100.00;76430.53;4985385;28;20057;-65
2023/07/08 04:40:04;;;;;;;5.22;3.13;;;;;;;-142.75;100.00;76432.50;4985098;28;20026;-65
2023/07/08 04:42:30;;;;;;;4.97;3.03;;;;;;;-142.75;100.00;76424.63;4985603;28;20553;-65
2023/07/08 04:44:55;;;;;;;4.50;2.78;;;;;;;-142.75;100.00;76412.81;4985563;28;20101;-65
2023/07/08 04:47:21;;;;;;;4.18;2.58;;;;;;;-142.75;100.00;76404.94;4984846;28;20080;-65
2023/07/08 04:49:47;;;;;;;6.50;2.60;;;;;;;-142.75;100.00;76391.16;4984955;28;20061;-65
2023/07/08 04:52:12;;;;;;;5.82;2.67;;;;;;;-142.75;100.00;76379.34;4985228;28;20026;-65
2023/07/08 04:54:38;;;;;;;5.20;2.50;;;;;;;-142.75;100.00;76373.44;4998083;28;20033;-65
2023/07/08 04:57:03;;;;;;;4.45;2.55;;;;;;;-142.75;100.00;76369.50;5004669;28;20022;-65
2023/07/08 04:59:34;;;;;;;13.52;3.63;;;;;;;-142.75;100.00;76361.63;5004341;28;20056;-66
2023/07/08 05:01:59;;;;;;;4.93;2.97;;;;;;;-142.75;100.00;76365.56;5004753;28;20067;-65
2023/07/08 05:04:24;;;;;;;7.85;2.92;;;;;;;-142.75;100.00;76345.91;4993175;28;20101;-65
2023/07/08 05:06:50;;;;;;;4.63;2.58;;;;;;;-142.75;100.00;76349.81;4979877;28;20065;-64
2023/07/08 05:09:16;;;;;;;4.90;3.00;;;;;;;-142.75;100.00;76349.81;4988503;28;20030;-64
2023/07/08 05:11:42;;;;;;;7.65;3.08;;;;;;;-142.75;100.00;76365.56;4985605;28;20030;-65
2023/07/08 05:14:07;;;;;;;5.50;3.15;;;;;;;-142.75;100.00;76341.97;4995601;28;20036;-64
2023/07/08 05:16:37;;;;;;;5.35;2.92;;;;;;;-142.75;100.00;76308.50;5001202;28;20026;-65
2023/07/08 05:19:03;;;;;;;5.00;2.75;;;;;;;-142.75;100.00;76306.53;5008141;28;20072;-65
2023/07/08 05:21:33;;;;;;;4.32;2.90;;;;;;;-142.75;100.00;76288.81;5008220;28;20038;-65
2023/07/08 05:24:00;;;;;;;3.33;2.55;;;;;;;-142.75;100.00;76275.03;5008170;28;20124;-65
2023/07/08 05:26:25;;;;;;;4.40;2.90;;;;;;;-142.75;100.00;76282.91;5008250;28;20531;-65
2023/07/08 05:28:51;;;;;;;5.53;2.92;;;;;;;-142.75;100.00;76255.34;5008113;28;20029;-65
2023/07/08 05:31:16;;;;;;;7.88;3.13;;;;;;;-142.75;100.00;76255.34;5008461;28;20030;-65
2023/07/08 05:33:41;;;;;;;8.27;3.45;;;;;;;-142.75;100.00;76255.34;5002813;28;20034;-65
2023/07/08 05:36:07;;;;;;;9.70;3.42;;;;;;;-142.75;100.00;76247.47;5005052;28;20039;-65
2023/07/08 05:38:32;;;;;;;5.07;2.90;;;;;;;-142.75;100.00;76227.78;4987433;28;20030;-65
2023/07/08 05:40:59;;;;;;;5.15;3.42;;;;;;;-142.75;100.00;76196.31;4988783;28;20135;-65
2023/07/08 05:43:25;;;;;;;5.53;3.05;;;;;;;-142.75;100.00;76210.06;4989069;28;20019;-65
2023/07/08 05:45:51;;;;;;;4.82;3.20;;;;;;;-142.75;100.00;76215.97;4988629;28;20061;-65
2023/07/08 05:48:16;;;;;;;5.38;2.88;;;;;;;-142.75;100.00;76186.47;4986943;28;20081;-65
2023/07/08 05:50:44;;;;;;;5.10;2.88;;;;;;;-142.75;100.00;76156.94;4988094;28;20073;-65
2023/07/08 05:53:10;;;;;;;7.88;3.10;;;;;;;-142.75;100.00;76133.31;4988406;28;20056;-65
2023/07/08 05:55:36;;;;;;;6.72;3.78;;;;;;;-142.75;100.00;76131.34;4987965;28;20589;-65
2023/07/08 05:58:02;;;;;;;4.85;2.95;;;;;;;-142.75;100.00;76129.38;4988125;28;20034;-65
2023/07/08 06:00:27;;;;;;;4.75;2.72;;;;;;;-142.75;100.00;76121.50;4999903;28;20049;-65
2023/07/08 06:02:52;;;;;;;4.70;2.92;;;;;;;-142.75;100.00;76133.31;5001324;28;20398;-65
2023/07/08 06:05:18;;;;;;;4.45;2.60;;;;;;;-142.75;100.00;76101.81;4988007;28;20027;-65
2023/07/08 06:07:43;;;;;;;5.65;3.08;;;;;;;-142.75;100.00;76097.88;4987926;28;20038;-65
2023/07/08 06:10:09;;;;;;;4.85;2.97;;;;;;;-142.75;100.00;76082.13;4987988;28;20034;-66
2023/07/08 06:12:34;;;;;;;4.72;2.65;;;;;;;-142.75;100.00;76062.47;5002232;28;20396;-66
2023/07/08 06:14:59;;;;;;;5.15;2.75;;;;;;;-142.75;100.00;76074.25;5007747;28;20500;-64
2023/07/08 06:17:25;;;;;;;6.43;3.28;;;;;;;-142.75;100.00;76076.22;5006959;28;20041;-65
2023/07/08 06:19:50;;;;;;;4.45;2.58;;;;;;;-142.75;100.00;76034.91;4987427;28;20105;-63
2023/07/08 06:22:16;;;;;;;4.50;2.83;;;;;;;-142.75;100.00;76011.28;4987597;28;20041;-65
2023/07/08 06:24:41;;;;;;;4.25;2.85;;;;;;;-142.75;100.00;76001.44;4999659;28;20025;-65
2023/07/08 06:27:06;;;;;;;3.78;2.60;;;;;;;-142.75;100.00;76019.16;5007162;28;20072;-65
2023/07/08 06:29:34;;;;;;;5.50;3.00;;;;;;;-142.75;100.00;75991.59;5003129;28;20502;-65
2023/07/08 06:32:00;;;;;;;4.78;2.75;;;;;;;-142.75;100.00;75985.69;4987545;28;20027;-62
2023/07/08 06:34:25;;;;;;;5.47;2.75;;;;;;;-142.75;100.00;75971.91;4991344;28;20030;-63
2023/07/08 06:36:51;;;;;;;6.20;2.42;;;;;;;-142.75;100.00;75954.22;5006579;28;20121;-66
2023/07/08 06:39:17;;;;;;;4.25;2.72;;;;;;;-142.75;100.00;75956.19;5007246;28;20389;-65
2023/07/08 06:41:43;;;;;;;6.35;2.80;;;;;;;-142.75;100.00;75966.00;4996099;28;20145;-65
2023/07/08 06:44:09;;;;;;;4.00;2.65;;;;;;;-142.75;100.00;75946.34;4991298;28;20583;-65
2023/07/08 06:46:34;;;;;;;4.40;2.90;;;;;;;-142.75;100.00;75964.03;4990416;28;20051;-65
2023/07/08 06:49:00;;;;;;;5.30;2.80;;;;;;;-142.75;100.00;75932.56;4990328;28;20262;-64
2023/07/08 06:51:26;;;;;;;4.03;2.75;;;;;;;-142.75;100.00;75930.59;4992261;28;20026;-65
2023/07/08 06:53:51;;;;;;;4.05;2.78;;;;;;;-142.75;100.00;75912.88;4987282;28;20405;-65
2023/07/08 06:56:17;;;;;;;6.13;2.85;;;;;;;-142.75;100.00;75899.09;4989809;28;20024;-64
2023/07/08 06:58:42;;;;;;;6.25;3.20;;;;;;;-142.75;100.00;75897.13;5001524;28;20043;-64
2023/07/08 07:01:07;;;;;;;4.28;2.25;;;;;;;-142.75;100.00;75889.25;4986578;28;20030;-65
2023/07/08 07:03:33;;;;;;;6.18;2.97;;;;;;;-142.75;100.00;75895.16;4986287;28;20026;-65
2023/07/08 07:05:58;;;;;;;5.75;2.83;;;;;;;-142.75;100.00;75893.19;4986838;28;20049;-65
2023/07/08 07:08:24;;;;;;;5.60;2.70;;;;;;;-142.75;100.00;75873.50;4986767;28;20922;-64
2023/07/08 07:10:49;;;;;;;4.88;2.97;;;;;;;-142.75;100.00;75863.66;4986665;28;20034;-65
2023/07/08 07:13:14;;;;;;;5.45;2.70;;;;;;;-142.75;100.00;75838.09;4984758;28;20029;-64
2023/07/08 07:15:40;;;;;;;6.63;3.08;;;;;;;-142.75;100.00;75834.16;4988591;28;20269;-65
2023/07/08 07:18:05;;;;;;;5.95;2.67;;;;;;;-142.75;100.00;75806.59;4985102;28;20030;-64
2023/07/08 07:20:31;;;;;;;5.45;2.90;;;;;;;-142.75;100.00;75790.84;4982033;28;20030;-64
2023/07/08 07:22:57;;;;;;;5.88;2.85;;;;;;;-142.75;100.00;75790.84;4986832;28;20465;-63
2023/07/08 07:25:22;;;;;;;4.85;2.97;;;;;;;-142.75;100.00;75773.13;4987561;28;20026;-64
2023/07/08 07:27:48;;;;;;;8.07;3.30;;;;;;;-142.75;100.00;75769.19;4992170;28;20146;-64
2023/07/08 07:30:14;;;;;;;6.63;2.72;;;;;;;-142.75;100.00;75767.22;4990483;28;20025;-65
2023/07/08 07:32:41;;;;;;;5.45;3.45;;;;;;;-142.75;100.00;75771.16;4988127;28;20023;-64
2023/07/08 07:35:07;;;;;;;6.55;2.90;;;;;;;-142.75;100.00;75763.28;4983247;28;20030;-64
2023/07/08 07:37:32;;;;;;;5.68;3.20;;;;;;;-142.75;100.00;75747.56;4987818;28;20077;-65
2023/07/08 07:39:57;;;;;;;5.18;3.13;;;;;;;-142.75;100.00;75731.81;4987665;28;20081;-65
2023/07/08 07:42:23;;;;;;;5.47;3.30;;;;;;;-142.75;100.00;75723.94;4986713;28;20030;-65
2023/07/08 07:44:48;;;;;;;4.85;2.95;;;;;;;-142.75;100.00;75708.19;4989547;28;20037;-65
2023/07/08 07:47:14;;;;;;;5.32;2.90;;;;;;;-142.75;100.00;75686.53;4990146;28;20105;-65
2023/07/08 07:49:40;;;;;;;6.78;3.50;;;;;;;-142.75;100.00;75678.66;4990513;28;20097;-65
2023/07/08 07:52:06;;;;;;;9.43;3.30;;;;;;;-142.75;100.00;75660.97;4989385;28;20719;-65
2023/07/08 07:54:31;;;;;;;7.13;3.45;;;;;;;-142.75;100.00;75672.78;4985786;28;20065;-64
2023/07/08 07:56:57;;;;;;;6.07;3.30;;;;;;;-142.75;100.00;75666.88;4989079;28;20030;-65
2023/07/08 07:59:22;;;;;;;5.80;3.10;;;;;;;-142.75;100.00;75657.03;5004811;28;20029;-65
2023/07/08 08:01:48;;;;;;;7.13;3.28;;;;;;;-142.75;100.00;75653.09;4999924;28;20076;-64
2023/07/08 08:04:13;;;;;;;8.48;3.72;;;;;;;-142.75;100.00;75645.22;4987371;28;20036;-64
2023/07/08 08:06:39;;;;;;;5.88;3.28;;;;;;;-142.75;100.00;75641.28;4985862;28;20155;-64
2023/07/08 08:09:06;;;;;;;6.38;3.88;;;;;;;-142.75;100.00;75647.19;4986346;28;20030;-65
2023/07/08 08:11:31;;;;;;;5.28;3.10;;;;;;;-142.75;100.00;75621.59;4986713;28;20073;-66
2023/07/08 08:13:57;;;;;;;7.13;4.05;;;;;;;-142.75;100.00;75625.53;4987783;28;20054;-64
2023/07/08 08:16:22;;;;;;;6.82;3.22;;;;;;;-142.75;100.00;75586.19;4987453;28;20033;-64
2023/07/08 08:18:48;;;;;;;6.50;3.38;;;;;;;-142.75;100.00;75586.19;4984640;28;20038;-67
2023/07/08 08:21:13;;;;;;;7.45;3.38;;;;;;;-142.75;100.00;75558.63;4985318;28;20025;-66
2023/07/08 08:23:39;;;;;;;7.97;4.03;;;;;;;-142.75;100.00;75554.69;4987344;28;20030;-65
2023/07/08 08:26:04;;;;;;;9.02;4.28;;;;;;;-142.75;100.00;75556.66;4987990;28;20503;-65
2023/07/08 08:28:29;;;;;;;7.30;3.90;;;;;;;-142.75;100.00;75533.03;4985258;28;20178;-63
2023/07/08 08:30:55;;;;;;;10.05;4.18;;;;;;;-142.75;100.00;75521.22;4988018;28;20401;-63
2023/07/08 08:33:20;;;;;;;7.05;3.72;;;;;;;-142.75;100.00;75503.53;4991753;28;20030;-65
2023/07/08 08:35:46;;;;;;;9.23;4.35;;;;;;;-142.75;100.00;75474.00;4992440;28;20064;-65
2023/07/08 08:38:11;;;;;;;6.00;3.83;;;;;;;-142.75;100.00;75468.09;4990357;28;20134;-64
2023/07/08 08:40:39;;;;;;;9.52;3.72;;;;;;;-142.75;100.00;75475.97;4988721;28;20122;-64
2023/07/08 08:43:14;;;;;;;7.03;3.67;;;;;;;-142.75;100.00;75448.41;4989859;28;20026;-64
2023/07/08 08:45:50;;;;;;;7.78;3.83;;;;;;;-142.75;100.00;75411.03;4986263;28;20087;-65
2023/07/08 08:48:19;;;;;;;5.97;3.90;;;;;;;-142.75;100.00;75409.06;4986977;28;20071;-64
2023/07/08 08:51:05;;;;;;;6.82;4.20;;;;;;;-142.75;100.00;75395.28;4987422;28;20045;-61
2023/07/08 08:53:31;;;;;;;10.52;3.83;;;;;;;-142.75;100.00;75375.59;4985897;28;20061;-64
2023/07/08 08:56:03;;;;;;;7.15;4.30;;;;;;;-142.75;100.00;75361.84;4986074;28;20614;-65
2023/07/08 08:58:51;;;;;;;9.10;4.05;;;;;;;-142.75;100.00;75348.06;4992285;28;20029;-64
2023/07/08 09:01:17;;;;;;;6.72;4.25;;;;;;;-142.75;100.00;75332.31;5006713;28;20030;-64
2023/07/08 09:03:58;;;;;;;5.50;3.45;;;;;;;-142.75;100.00;75316.56;5006637;28;20071;-64
2023/07/08 09:06:29;;;;;;;9.40;4.25;;;;;;;-142.75;100.00;75304.75;5006501;28;20101;-64
2023/07/08 09:09:00;;;;;;;6.03;3.95;;;;;;;-142.75;99.49;75316.56;5006397;28;20097;-64
2023/07/08 09:12:02;;;;;;;7.63;3.85;;;;;;;-142.75;100.00;75291.00;5006724;28;20061;-64
2023/07/08 09:14:30;;;;;;;5.68;3.55;;;;;;;-142.75;100.00;75291.00;5005163;28;20022;-65
2023/07/08 09:17:20;;;;;;;9.60;4.05;;;;;;;-142.75;95.55;75287.06;4999406;28;20022;-64
2023/07/08 09:20:12;;;;;;;8.38;3.97;;;;;;;-142.75;99.99;75271.31;5002741;28;20397;-65
2023/07/08 09:22:52;;;;;;;7.32;4.10;;;;;;;-142.75;96.15;75255.56;4994187;28;20019;-64
2023/07/08 09:25:28;;;;;;;7.82;4.38;;;;;;;-142.75;90.48;75253.59;4991110;28;20041;-65
2023/07/08 09:27:54;;;;;;;7.97;4.68;;;;;;;-142.75;89.17;75287.06;4987388;28;20029;-64
2023/07/08 09:30:23;;;;;;;7.70;4.05;;;;;;;-142.75;92.85;75283.13;4989687;28;20603;-64
2023/07/08 09:32:49;;;;;;;7.57;4.20;;;;;;;-142.75;90.09;75277.22;4991590;28;20026;-65
2023/07/08 09:35:21;;;;;;;8.30;4.35;;;;;;;-142.75;93.59;75255.56;4986785;28;20069;-65
2023/07/08 09:37:48;;;;;;;6.80;4.10;;;;;;;-142.75;92.93;75245.72;4986434;28;20026;-65
2023/07/08 09:40:21;;;;;;;8.23;5.03;;;;;;;-142.75;87.40;75229.97;4986842;28;20034;-65
2023/07/08 09:42:51;;;;;;;7.63;3.95;;;;;;;-142.75;96.65;75200.47;4986710;28;20022;-65
2023/07/08 09:45:21;;;;;;;7.07;3.72;;;;;;;-142.75;97.09;75167.00;4986769;28;20026;-65
2023/07/08 09:47:47;;;;;;;7.95;4.35;;;;;;;-142.75;89.33;75149.31;4986112;28;20486;-65
2023/07/08 09:50:24;;;;;;;11.20;4.00;;;;;;;-142.75;86.31;75137.50;4986458;28;20026;-65
2023/07/08 09:52:51;;;;;;;6.20;3.72;;;;;;;-142.75;87.56;75121.75;4986626;28;20029;-65
2023/07/08 09:55:17;;;;;;;6.90;3.90;;;;;;;-142.75;89.16;75094.22;4986861;28;20034;-65
2023/07/08 09:57:45;;;;;;;8.43;3.97;;;;;;;-142.75;83.69;75094.22;4986679;28;20026;-65
2023/07/08 10:00:25;;;;;;;7.25;3.90;;;;;;;-142.75;87.87;75070.59;4990264;28;20518;-65
2023/07/08 10:02:58;;;;;;;7.30;4.07;;;;;;;-142.75;89.25;75068.63;4990820;28;20042;-65
2023/07/08 10:05:30;;;;;;;10.38;4.82;;;;;;;-142.75;85.17;75078.47;4989464;28;20034;-65
2023/07/08 10:07:57;;;;;;;6.63;3.80;;;;;;;-142.75;86.80;75100.09;4989299;28;20026;-65
2023/07/08 10:10:34;;;;;;;9.35;4.60;;;;;;;-142.75;90.16;75078.47;4994798;28;20029;-65
2023/07/08 10:13:03;;;;;;;9.25;4.05;;;;;;;-142.75;88.83;75096.19;4991703;28;20037;-65
2023/07/08 10:15:34;;;;;;;7.35;4.25;;;;;;;-142.75;88.29;75094.22;4993708;28;20037;-65
2023/07/08 10:18:00;;;;;;;7.82;4.80;;;;;;;-142.75;85.44;75078.47;4994357;28;20026;-65
2023/07/08 10:20:36;;;;;;;9.05;4.57;;;;;;;-142.75;86.50;75062.72;5003644;28;20052;-64
2023/07/08 10:23:23;;;;;;;7.07;4.55;;;;;;;-142.75;88.34;75039.13;4988946;28;20027;-65
2023/07/08 10:26:11;;;;;;;8.27;4.28;;;;;;;-142.75;83.57;75021.41;4987252;28;20037;-65
2023/07/08 10:28:55;;;;;;;8.75;4.53;;;;;;;-142.75;87.04;74976.16;4985141;28;20057;-66
2023/07/08 10:31:49;;;;;;;8.95;4.50;;;;;;;-142.75;81.15;74970.25;4996062;28;20550;-66
2023/07/08 10:34:36;;;;;;;9.27;4.38;;;;;;;-142.75;79.50;74960.41;4985763;28;20038;-66
2023/07/08 10:37:19;;;;;;;9.00;4.25;;;;;;;-142.75;81.15;74919.09;5002246;28;20528;-66
2023/07/08 10:40:21;;;;;;;6.93;4.15;;;;;;;-142.75;79.83;74909.25;4995904;28;20028;-66
2023/07/08 10:42:52;;;;;;;9.63;4.53;;;;;;;-142.75;81.36;74889.56;4994755;28;20087;-66
2023/07/08 10:45:31;;;;;;;9.85;4.57;;;;;;;-142.75;77.75;74930.88;4989058;28;20026;-66
2023/07/08 10:48:06;;;;;;;6.97;4.38;;;;;;;-142.75;79.08;74924.97;4989469;28;20026;-64
2023/07/08 10:50:37;;;;;;;9.65;4.65;;;;;;;-142.75;80.11;74942.69;4989391;28;20053;-63
2023/07/08 10:53:35;;;;;;;8.07;4.38;;;;;;;-142.75;77.77;74952.53;4989453;28;20033;-64
2023/07/08 10:56:18;;;;;;;9.63;4.43;;;;;;;-142.75;82.65;74952.53;4988534;28;20080;-64
2023/07/08 10:58:52;;;;;;;8.55;4.03;;;;;;;-142.75;84.83;74938.75;4988624;28;20061;-63
2023/07/08 11:01:32;;;;;;;6.25;4.15;;;;;;;-142.75;81.51;74917.13;4989030;28;20031;-63
2023/07/08 11:04:17;;;;;;;6.47;3.97;;;;;;;-142.75;81.90;74909.25;4989189;28;20034;-63
2023/07/08 11:06:59;;;;;;;8.07;4.50;;;;;;;-142.75;76.82;74887.59;4989195;28;20022;-63
2023/07/08 11:09:54;;;;;;;9.73;4.70;;;;;;;-142.75;74.41;74936.78;4988281;28;20284;-63
2023/07/08 11:12:45;;;;;;;8.05;3.88;;;;;;;-142.75;75.84;74926.94;4988413;28;20085;-63
2023/07/08 11:15:16;;;;;;;10.52;4.07;;;;;;;-142.75;76.67;74932.84;4989029;28;20041;-63
2023/07/08 11:17:51;;;;;;;7.65;4.65;;;;;;;-142.75;75.76;74930.88;4988192;28;20552;-63